Time;durP1;ratioP1;P1;durP2;ratioP2;P2;SDS_P1;SDS_P2;PMS_P1;PMS_P2;Temp;Humidity;BMP_temperature;BMP_pressure;BME280_temperature;BME280_humidity;BME280_pressure;Samples;Min_cycle;Max_cycle;Signal;HPM_P1;HPM_P2
2022/02/12 00:00:12;;;;;;;14.70;9.77;;;7.80;57.30;;;;;;5040521;28;20530;-41
2022/02/12 00:02:38;;;;;;;16.60;9.70;;;7.70;57.40;;;;;;5040757;28;20889;-41
2022/02/12 00:05:05;;;;;;;31.53;10.73;;;7.70;57.60;;;;;;5038007;28;20804;-41
2022/02/12 00:07:31;;;;;;;16.30;10.17;;;7.70;57.50;;;;;;5039252;28;21034;-41
2022/02/12 00:09:56;;;;;;;19.23;9.47;;;7.80;57.70;;;;;;5038139;28;20525;-41
2022/02/12 00:12:22;;;;;;;22.10;10.40;;;7.90;57.20;;;;;;5041015;28;20223;-41
2022/02/12 00:14:48;;;;;;;15.43;9.97;;;7.90;57.00;;;;;;5047155;28;20188;-41
2022/02/12 00:17:13;;;;;;;16.33;10.30;;;8.00;56.50;;;;;;5048287;28;20966;-41
2022/02/12 00:19:39;;;;;;;15.80;11.40;;;8.20;56.30;;;;;;5047113;28;20574;-41
2022/02/12 00:22:05;;;;;;;20.40;10.13;;;8.30;55.80;;;;;;5043971;28;20200;-41
2022/02/12 00:24:30;;;;;;;30.27;10.00;;;8.30;55.50;;;;;;5043146;28;20657;-42
2022/02/12 00:26:56;;;;;;;32.90;9.80;;;8.00;54.60;;;;;;5039126;28;20188;-41
2022/02/12 00:29:21;;;;;;;48.73;12.07;;;7.30;55.60;;;;;;5044277;28;21413;-41
2022/02/12 00:31:47;;;;;;;36.60;10.73;;;6.70;57.50;;;;;;5038816;28;20233;-41
2022/02/12 00:34:14;;;;;;;61.20;12.10;;;6.50;58.80;;;;;;5046580;28;20212;-41
2022/02/12 00:36:39;;;;;;;26.40;10.40;;;5.70;59.40;;;;;;5047485;28;20432;-41
2022/02/12 00:39:05;;;;;;;17.20;11.00;;;5.40;63.50;;;;;;5046386;28;20870;-41
2022/02/12 00:41:31;;;;;;;19.80;11.10;;;5.40;63.30;;;;;;5046843;28;20220;-41
2022/02/12 00:43:57;;;;;;;47.13;12.20;;;5.70;63.50;;;;;;5046804;28;20482;-41
2022/02/12 00:46:23;;;;;;;17.30;10.23;;;5.90;62.30;;;;;;5046609;28;20434;-41
2022/02/12 00:48:48;;;;;;;33.87;9.83;;;5.60;62.20;;;;;;5037903;28;20671;-41
2022/02/12 00:51:14;;;;;;;17.77;11.33;;;5.80;62.30;;;;;;5041000;28;20197;-41
2022/02/12 00:53:40;;;;;;;31.97;11.13;;;5.80;62.30;;;;;;5037937;28;20217;-41
2022/02/12 00:56:07;;;;;;;26.07;10.90;;;5.70;61.60;;;;;;5040898;28;20250;-41
2022/02/12 00:58:32;;;;;;;22.53;11.20;;;5.50;63.50;;;;;;5041146;28;20451;-41
2022/02/12 01:00:58;;;;;;;20.57;10.43;;;5.40;63.00;;;;;;5043846;28;20447;-41
2022/02/12 01:03:23;;;;;;;32.10;10.97;;;5.30;63.40;;;;;;5047013;28;20270;-41
2022/02/12 01:05:49;;;;;;;25.47;10.90;;;5.10;63.40;;;;;;5045491;28;20535;-41
2022/02/12 01:08:15;;;;;;;38.33;11.63;;;4.90;64.60;;;;;;5041094;28;20192;-41
2022/02/12 01:10:40;;;;;;;35.20;11.27;;;4.70;65.40;;;;;;5046885;28;20185;-41
2022/02/12 01:13:06;;;;;;;38.50;11.53;;;4.80;65.00;;;;;;5040691;28;20196;-41
2022/02/12 01:15:33;;;;;;;24.20;11.63;;;4.80;65.20;;;;;;5047017;28;21620;-41
2022/02/12 01:17:59;;;;;;;18.80;11.53;;;4.80;65.40;;;;;;5039080;28;20250;-41
2022/02/12 01:20:24;;;;;;;42.57;11.57;;;4.80;65.30;;;;;;5037674;28;20514;-41
2022/02/12 01:22:50;;;;;;;26.67;11.03;;;5.00;64.60;;;;;;5039120;28;20229;-41
2022/02/12 01:25:16;;;;;;;32.17;12.30;;;4.90;64.10;;;;;;5041577;28;20203;-41
2022/02/12 01:27:42;;;;;;;24.47;10.43;;;4.90;64.50;;;;;;5047499;28;20186;-41
2022/02/12 01:30:08;;;;;;;38.23;11.60;;;4.90;65.00;;;;;;5035916;28;20503;-41
2022/02/12 01:32:34;;;;;;;39.07;11.27;;;4.40;65.20;;;;;;5043100;28;20203;-41
2022/02/12 01:35:00;;;;;;;46.70;11.30;;;4.20;66.50;;;;;;5049715;28;20451;-41
2022/02/12 01:37:26;;;;;;;23.40;12.03;;;4.20;67.50;;;;;;5035555;28;20523;-41
2022/02/12 01:39:52;;;;;;;18.33;11.10;;;4.30;68.10;;;;;;5045572;28;20815;-41
2022/02/12 01:42:18;;;;;;;15.17;10.27;;;4.30;67.70;;;;;;5042916;28;20312;-41
2022/02/12 01:44:45;;;;;;;74.50;13.50;;;4.40;67.30;;;;;;5046090;28;20243;-41
2022/02/12 01:47:11;;;;;;;20.03;11.13;;;4.40;66.90;;;;;;5047744;28;20458;-41
2022/02/12 01:49:39;;;;;;;41.17;11.93;;;4.50;67.40;;;;;;5038361;28;20463;-41
2022/02/12 01:52:08;;;;;;;24.97;10.30;;;4.50;66.90;;;;;;5035927;28;20518;-41
2022/02/12 01:54:34;;;;;;;41.47;11.73;;;4.50;67.00;;;;;;5042324;28;20493;-41
2022/02/12 01:57:02;;;;;;;22.83;11.20;;;4.60;66.60;;;;;;5041802;28;20474;-41
2022/02/12 01:59:28;;;;;;;20.43;10.43;;;4.70;66.60;;;;;;5033623;28;20939;-42
2022/02/12 02:01:54;;;;;;;15.20;10.23;;;5.00;65.70;;;;;;5037934;28;20446;-41
2022/02/12 02:04:21;;;;;;;35.73;11.33;;;5.20;64.80;;;;;;5045747;28;20502;-41
2022/02/12 02:06:47;;;;;;;75.43;12.60;;;5.30;64.10;;;;;;5046195;28;20180;-41
2022/02/12 02:09:15;;;;;;;23.63;9.40;;;5.10;63.20;;;;;;5041904;28;20447;-41
2022/02/12 02:11:41;;;;;;;16.47;10.03;;;4.90;63.90;;;;;;5043692;28;20491;-41
2022/02/12 02:14:07;;;;;;;28.97;10.10;;;4.90;64.10;;;;;;5046597;28;20443;-41
2022/02/12 02:16:33;;;;;;;27.37;11.30;;;5.00;63.70;;;;;;5045127;28;20189;-41
2022/02/12 02:18:58;;;;;;;61.67;11.63;;;5.10;63.40;;;;;;5043971;28;20489;-41
2022/02/12 02:21:24;;;;;;;24.83;11.37;;;5.20;63.00;;;;;;5043522;28;20188;-41
2022/02/12 02:23:50;;;;;;;19.13;9.73;;;4.90;62.80;;;;;;5045105;28;20220;-41
2022/02/12 02:26:16;;;;;;;24.27;9.40;;;4.80;64.80;;;;;;5045518;28;20190;-41
2022/02/12 02:28:42;;;;;;;21.57;10.60;;;4.90;64.20;;;;;;5041017;28;20529;-41
2022/02/12 02:31:07;;;;;;;22.03;10.70;;;5.10;63.90;;;;;;5040037;28;20237;-41
2022/02/12 02:33:33;;;;;;;34.60;11.97;;;5.30;63.30;;;;;;5042686;28;20193;-41
2022/02/12 02:35:59;;;;;;;53.10;12.57;;;5.50;63.60;;;;;;5039805;28;20201;-41
2022/02/12 02:38:24;;;;;;;13.73;10.27;;;5.50;62.20;;;;;;5047314;28;20216;-41
2022/02/12 02:40:52;;;;;;;40.37;12.23;;;5.20;62.40;;;;;;5050335;28;20541;-41
2022/02/12 02:43:18;;;;;;;14.90;9.90;;;5.30;62.40;;;;;;5038518;28;20224;-41
2022/02/12 02:45:44;;;;;;;34.07;9.90;;;5.30;62.10;;;;;;5047468;28;20481;-41
2022/02/12 02:48:10;;;;;;;25.23;11.53;;;5.40;62.00;;;;;;5045778;28;20189;-41
2022/02/12 02:56:10;;;;;;;30.33;8.97;;;5.30;62.40;;;;;;5051921;28;20811;-42
2022/02/12 02:58:40;;;;;;;69.33;11.30;;;5.40;61.90;;;;;;5046569;28;20945;-41
2022/02/12 03:01:07;;;;;;;18.20;9.40;;;5.30;61.70;;;;;;5051336;28;20509;-41
2022/02/12 03:03:35;;;;;;;17.00;9.90;;;5.20;61.90;;;;;;5047012;28;20517;-42
2022/02/12 03:06:00;;;;;;;16.67;9.43;;;5.00;62.50;;;;;;5048668;28;20564;-41
2022/02/12 03:08:26;;;;;;;34.23;10.20;;;5.10;62.70;;;;;;5047233;28;20443;-44
2022/02/12 03:10:52;;;;;;;32.67;10.20;;;5.20;62.30;;;;;;5041134;28;20212;-41
2022/02/12 03:13:18;;;;;;;26.70;10.37;;;5.10;61.80;;;;;;5042691;28;20623;-41
2022/02/12 03:15:43;;;;;;;16.77;9.40;;;4.80;62.00;;;;;;5044690;28;21168;-41
2022/02/12 03:18:09;;;;;;;36.97;10.60;;;4.50;63.20;;;;;;5045072;28;20220;-41
2022/02/12 03:20:35;;;;;;;36.07;11.03;;;4.50;64.50;;;;;;5046638;28;20564;-41
2022/02/12 03:23:01;;;;;;;38.90;9.90;;;4.40;65.10;;;;;;5047999;28;20660;-41
2022/02/12 03:25:28;;;;;;;30.30;10.63;;;4.30;64.60;;;;;;5050940;28;20533;-41
2022/02/12 03:27:55;;;;;;;48.27;10.80;;;4.30;66.00;;;;;;5049881;28;20194;-41
2022/02/12 03:30:21;;;;;;;44.83;10.63;;;4.40;65.00;;;;;;5045218;28;20489;-41
2022/02/12 03:32:47;;;;;;;37.60;11.07;;;4.30;64.90;;;;;;5041309;28;20436;-41
2022/02/12 03:35:13;;;;;;;38.17;11.00;;;4.30;65.20;;;;;;5043198;28;20438;-41
2022/02/12 03:37:39;;;;;;;16.93;10.00;;;4.40;65.50;;;;;;5035629;28;20444;-41
2022/02/12 03:40:05;;;;;;;28.43;9.80;;;4.30;65.00;;;;;;5047709;28;20447;-41
2022/02/12 03:42:30;;;;;;;64.23;11.53;;;4.40;65.10;;;;;;5050058;28;20518;-41
2022/02/12 03:44:56;;;;;;;26.90;9.20;;;4.30;64.50;;;;;;5043117;28;21609;-41
2022/02/12 03:47:22;;;;;;;28.07;9.60;;;4.00;65.20;;;;;;5048166;28;20189;-41
2022/02/12 03:49:47;;;;;;;23.53;10.40;;;3.90;65.40;;;;;;5048002;28;20207;-41
2022/02/12 03:52:13;;;;;;;41.67;10.47;;;3.60;66.00;;;;;;5043360;28;20203;-41
2022/02/12 03:54:38;;;;;;;17.43;10.30;;;3.70;66.70;;;;;;5051314;28;20224;-41
2022/02/12 03:57:04;;;;;;;19.13;8.83;;;3.70;67.30;;;;;;5044044;28;20648;-41
2022/02/12 03:59:29;;;;;;;27.23;9.63;;;4.00;66.80;;;;;;5044401;28;20193;-41
2022/02/12 04:01:55;;;;;;;14.17;9.37;;;4.30;65.70;;;;;;5045593;28;20192;-41
2022/02/12 04:04:20;;;;;;;23.90;10.77;;;4.10;64.90;;;;;;5038254;28;20228;-41
2022/02/12 04:06:46;;;;;;;22.60;10.60;;;4.20;65.30;;;;;;5048993;28;20189;-41
2022/02/12 04:09:12;;;;;;;29.47;10.57;;;4.30;64.90;;;;;;5048587;28;20196;-41
2022/02/12 04:11:37;;;;;;;16.30;10.33;;;4.40;64.80;;;;;;5046719;28;20188;-41
2022/02/12 04:14:03;;;;;;;40.90;10.77;;;4.50;63.90;;;;;;5034662;28;20196;-41
2022/02/12 04:16:28;;;;;;;19.90;10.20;;;4.20;64.00;;;;;;5041341;28;20205;-41
2022/02/12 04:18:54;;;;;;;28.03;10.20;;;4.00;65.00;;;;;;5049589;28;20220;-41
2022/02/12 04:21:19;;;;;;;22.33;9.53;;;4.10;64.90;;;;;;5044448;28;20657;-41
2022/02/12 04:23:45;;;;;;;50.40;11.70;;;4.20;64.00;;;;;;5047548;28;20223;-41
2022/02/12 04:26:12;;;;;;;29.00;10.37;;;4.10;63.80;;;;;;5045983;28;20564;-41
2022/02/12 04:28:38;;;;;;;35.97;9.57;;;3.80;65.60;;;;;;5047305;28;20219;-41
2022/02/12 04:31:04;;;;;;;31.83;10.23;;;3.70;65.80;;;;;;5037638;28;20761;-41
2022/02/12 04:33:30;;;;;;;31.43;9.87;;;3.80;66.40;;;;;;5036295;28;20202;-41
2022/02/12 04:35:56;;;;;;;17.00;9.93;;;3.70;65.90;;;;;;5041280;28;20956;-41
2022/02/12 04:38:21;;;;;;;24.50;9.13;;;3.80;66.40;;;;;;5045732;28;20439;-41
2022/02/12 04:40:47;;;;;;;47.83;10.53;;;4.00;65.50;;;;;;5047906;28;20197;-41
2022/02/12 04:43:12;;;;;;;27.63;9.97;;;4.00;64.70;;;;;;5047094;28;20984;-41
2022/02/12 04:45:38;;;;;;;14.50;8.83;;;4.20;64.50;;;;;;5042598;28;20193;-41
2022/02/12 04:48:04;;;;;;;16.47;8.20;;;4.10;64.00;;;;;;5040392;28;20234;-41
2022/02/12 04:50:30;;;;;;;14.70;10.13;;;4.30;64.20;;;;;;5049980;28;20192;-41
2022/02/12 04:52:56;;;;;;;22.23;10.33;;;4.50;63.80;;;;;;5044999;28;20189;-41
2022/02/12 04:55:22;;;;;;;26.37;10.73;;;4.50;62.80;;;;;;5039947;28;20195;-41
2022/02/12 04:57:48;;;;;;;20.37;9.30;;;4.10;62.70;;;;;;5039184;28;20806;-41
2022/02/12 05:00:14;;;;;;;20.27;9.50;;;3.90;63.90;;;;;;5046388;28;20255;-41
2022/02/12 05:02:41;;;;;;;22.73;9.80;;;4.10;64.20;;;;;;5036792;28;20226;-41
2022/02/12 05:05:08;;;;;;;21.50;9.50;;;4.20;64.30;;;;;;5042746;28;20450;-41
2022/02/12 05:07:33;;;;;;;42.97;11.30;;;4.30;64.00;;;;;;5039324;28;20464;-41
2022/02/12 05:09:59;;;;;;;21.87;9.67;;;4.60;63.30;;;;;;5042734;28;20869;-41
2022/02/12 05:12:25;;;;;;;14.37;8.57;;;4.50;62.20;;;;;;5048645;28;20188;-41
2022/02/12 05:14:51;;;;;;;15.70;9.07;;;4.40;62.00;;;;;;5036064;28;20229;-41
2022/02/12 05:17:17;;;;;;;17.07;9.70;;;4.50;61.90;;;;;;5046115;28;20921;-41
2022/02/12 05:19:42;;;;;;;13.70;8.80;;;4.40;61.70;;;;;;5043780;28;20200;-41
2022/02/12 05:22:08;;;;;;;19.47;8.60;;;4.50;62.00;;;;;;5041688;28;20196;-41
2022/02/12 05:24:33;;;;;;;25.03;10.00;;;4.50;61.40;;;;;;5047436;28;20278;-41
2022/02/12 05:26:59;;;;;;;17.30;8.33;;;4.30;61.40;;;;;;5044495;28;20199;-41
2022/02/12 05:29:25;;;;;;;20.00;8.77;;;4.20;62.40;;;;;;5048228;28;20197;-42
2022/02/12 05:31:50;;;;;;;14.13;8.27;;;4.20;62.30;;;;;;5047426;28;20224;-41
2022/02/12 05:34:17;;;;;;;19.93;9.20;;;4.20;61.90;;;;;;5045692;28;20231;-41
2022/02/12 05:36:43;;;;;;;19.63;9.53;;;4.20;61.90;;;;;;5036004;28;20234;-41
2022/02/12 05:39:09;;;;;;;21.90;9.90;;;4.30;62.10;;;;;;5043871;28;22244;-41
2022/02/12 05:41:36;;;;;;;27.87;9.20;;;4.20;61.50;;;;;;5049554;28;20820;-41
2022/02/12 05:44:02;;;;;;;16.73;8.57;;;4.10;61.20;;;;;;5043709;28;20484;-41
2022/02/12 05:46:27;;;;;;;15.43;8.73;;;3.90;62.00;;;;;;5039394;28;20503;-41
2022/02/12 05:48:53;;;;;;;17.43;8.40;;;4.00;62.50;;;;;;5037121;28;20236;-41
2022/02/12 05:51:20;;;;;;;26.13;9.17;;;4.00;62.10;;;;;;5045073;28;20224;-41
2022/02/12 05:53:47;;;;;;;15.63;8.30;;;4.20;62.10;;;;;;5038953;28;20651;-41
2022/02/12 05:56:12;;;;;;;21.33;9.30;;;4.30;61.70;;;;;;5037210;28;20448;-41
2022/02/12 05:58:38;;;;;;;13.10;8.43;;;4.60;61.30;;;;;;5040849;28;20443;-42
2022/02/12 06:01:04;;;;;;;19.60;8.50;;;4.50;60.40;;;;;;5040085;28;20231;-41
2022/02/12 06:03:29;;;;;;;16.93;9.07;;;4.60;60.20;;;;;;5037001;28;20596;-41
2022/02/12 06:05:55;;;;;;;14.03;9.47;;;4.70;59.80;;;;;;5047826;28;20192;-41
2022/02/12 06:08:20;;;;;;;17.30;8.80;;;4.80;59.70;;;;;;5045009;28;20205;-41
2022/02/12 06:10:50;;;;;;;23.67;8.60;;;4.80;59.70;;;;;;5051457;28;20212;-41
2022/02/12 06:13:16;;;;;;;12.53;8.10;;;4.60;59.50;;;;;;5045862;28;20666;-41
2022/02/12 06:15:42;;;;;;;13.20;8.87;;;4.70;59.90;;;;;;5047730;28;20447;-41
2022/02/12 06:18:08;;;;;;;15.43;9.00;;;4.70;59.80;;;;;;5043039;28;20435;-41
2022/02/12 06:20:33;;;;;;;14.53;8.50;;;4.80;59.40;;;;;;5046844;28;20202;-42
2022/02/12 06:23:00;;;;;;;15.73;7.17;;;4.70;59.20;;;;;;5050710;28;20232;-41
2022/02/12 06:25:26;;;;;;;25.37;9.23;;;4.80;60.00;;;;;;5052071;28;20219;-41
2022/02/12 06:27:52;;;;;;;14.60;8.97;;;5.10;62.80;;;;;;5041719;28;20482;-41
2022/02/12 06:30:17;;;;;;;11.90;8.80;;;5.40;64.00;;;;;;5043420;28;20479;-41
2022/02/12 06:32:43;;;;;;;13.23;8.20;;;5.80;63.70;;;;;;5042208;28;20205;-41
2022/02/12 06:35:09;;;;;;;14.30;9.23;;;6.20;63.20;;;;;;5044504;28;20272;-41
2022/02/12 06:37:35;;;;;;;19.93;8.53;;;6.40;61.40;;;;;;5050071;28;20200;-41
2022/02/12 06:40:01;;;;;;;21.90;10.30;;;6.40;58.90;;;;;;5049200;28;20492;-41
2022/02/12 06:42:26;;;;;;;15.20;10.30;;;6.30;57.40;;;;;;5052417;28;20193;-41
2022/02/12 06:44:52;;;;;;;16.03;9.80;;;6.10;56.50;;;;;;5044638;28;20343;-41
2022/02/12 06:47:18;;;;;;;15.70;9.17;;;6.00;56.50;;;;;;5048498;28;20189;-41
2022/02/12 06:49:44;;;;;;;21.70;9.23;;;5.90;56.90;;;;;;5051908;28;20197;-41
2022/02/12 06:52:10;;;;;;;12.57;7.90;;;5.80;56.30;;;;;;5051988;28;20474;-41
2022/02/12 06:54:36;;;;;;;15.47;10.20;;;5.70;56.30;;;;;;5048040;28;20489;-41
2022/02/12 06:57:02;;;;;;;17.33;10.37;;;5.60;56.40;;;;;;5048671;28;20505;-44
2022/02/12 06:59:27;;;;;;;13.50;8.80;;;5.50;56.60;;;;;;5049202;28;20283;-41
2022/02/12 07:01:53;;;;;;;12.90;8.57;;;5.50;57.00;;;;;;5050671;28;20197;-41
2022/02/12 07:04:19;;;;;;;14.30;9.70;;;5.40;57.00;;;;;;5047978;28;20224;-41
2022/02/12 07:06:44;;;;;;;22.17;10.03;;;5.40;57.20;;;;;;5039534;28;20193;-41
2022/02/12 07:09:13;;;;;;;15.43;8.60;;;5.30;57.10;;;;;;5050854;28;20283;-41
2022/02/12 07:11:39;;;;;;;21.50;9.17;;;5.30;57.00;;;;;;5039493;28;20276;-41
2022/02/12 07:14:05;;;;;;;16.10;8.90;;;5.30;56.80;;;;;;5049186;28;20787;-41
2022/02/12 07:16:31;;;;;;;15.53;8.37;;;5.30;56.60;;;;;;5049921;28;20443;-41
2022/02/12 07:18:56;;;;;;;14.20;8.03;;;5.30;56.60;;;;;;5046715;28;20216;-41
2022/02/12 07:21:22;;;;;;;16.10;8.93;;;5.20;56.60;;;;;;5040874;28;20434;-41
2022/02/12 07:23:48;;;;;;;11.10;8.00;;;5.20;56.90;;;;;;5050510;28;20377;-41
2022/02/12 07:26:14;;;;;;;12.53;8.00;;;5.20;57.00;;;;;;5052341;28;20986;-41
2022/02/12 07:28:42;;;;;;;26.93;9.40;;;5.10;57.00;;;;;;5049876;28;20239;-41
2022/02/12 07:31:18;;;;;;;15.60;9.27;;;5.10;57.10;;;;;;5046162;28;20224;-42
2022/02/12 07:33:44;;;;;;;20.83;9.30;;;5.20;57.30;;;;;;5051525;28;20459;-43
2022/02/12 07:36:11;;;;;;;11.90;8.23;;;5.10;57.30;;;;;;5044802;28;20910;-41
2022/02/12 07:38:37;;;;;;;11.83;8.13;;;5.20;57.40;;;;;;5049973;28;20451;-41
2022/02/12 07:41:03;;;;;;;11.80;8.83;;;5.10;57.40;;;;;;5047511;28;20526;-41
2022/02/12 07:43:28;;;;;;;27.07;9.80;;;5.00;57.50;;;;;;5038314;28;20626;-41
2022/02/12 07:45:54;;;;;;;14.43;9.83;;;5.00;57.70;;;;;;5050189;28;20203;-41
2022/02/12 07:48:20;;;;;;;12.10;9.00;;;5.10;57.80;;;;;;5044686;28;20200;-41
2022/02/12 07:50:46;;;;;;;15.20;9.00;;;5.20;58.00;;;;;;5052176;28;20203;-41
2022/02/12 07:53:14;;;;;;;12.40;7.80;;;5.10;57.70;;;;;;5050919;28;20431;-41
2022/02/12 07:55:40;;;;;;;9.93;7.13;;;4.80;56.80;;;;;;5049509;28;20442;-41
2022/02/12 07:58:07;;;;;;;18.53;9.90;;;4.80;58.00;;;;;;5045122;28;20439;-41
2022/02/12 08:00:33;;;;;;;18.43;9.63;;;4.90;58.00;;;;;;5038739;28;20432;-41
2022/02/12 08:02:59;;;;;;;19.17;9.50;;;5.00;57.80;;;;;;5045538;28;20486;-41
2022/02/12 08:05:25;;;;;;;14.10;10.33;;;5.10;57.80;;;;;;5053040;28;20902;-41
2022/02/12 08:07:50;;;;;;;16.80;9.50;;;5.30;58.00;;;;;;5051673;28;20488;-41
2022/02/12 08:13:01;;;;;;;12.73;8.57;;;5.40;57.90;;;;;;5052247;28;20227;-41
2022/02/12 08:15:28;;;;;;;15.10;8.87;;;5.50;57.60;;;;;;5052752;28;20454;-41
2022/02/12 08:17:54;;;;;;;13.17;9.47;;;5.60;57.30;;;;;;5049034;28;20431;-41
2022/02/12 08:20:21;;;;;;;17.60;10.13;;;5.60;57.00;;;;;;5052838;28;20479;-41
2022/02/12 08:22:46;;;;;;;13.00;9.03;;;5.70;57.00;;;;;;5050269;28;20493;-41
2022/02/12 08:25:12;;;;;;;12.93;9.40;;;5.80;57.20;;;;;;5052553;28;20423;-41
2022/02/12 08:27:38;;;;;;;15.57;9.33;;;5.90;57.30;;;;;;5051379;28;20561;-41
2022/02/12 08:30:06;;;;;;;16.63;9.27;;;5.70;56.80;;;;;;5051532;28;21037;-41
2022/02/12 08:32:32;;;;;;;18.00;9.03;;;5.80;57.30;;;;;;5048436;28;20475;-41
2022/02/12 08:34:58;;;;;;;18.10;11.87;;;6.00;57.40;;;;;;5032417;28;20435;-41
2022/02/12 08:37:24;;;;;;;17.70;10.50;;;6.20;57.50;;;;;;5032043;28;20428;-41
2022/02/12 08:39:51;;;;;;;16.27;10.20;;;6.30;57.20;;;;;;5043913;28;20188;-41
2022/02/12 08:42:20;;;;;;;14.77;10.20;;;6.20;57.40;;;;;;5051219;28;20815;-41
2022/02/12 08:44:46;;;;;;;16.00;10.37;;;6.20;57.80;;;;;;5052071;28;20442;-41
2022/02/12 08:47:12;;;;;;;17.03;11.57;;;6.10;58.00;;;;;;5051399;28;20419;-41
2022/02/12 08:49:38;;;;;;;14.30;10.80;;;6.00;58.30;;;;;;5050263;28;20430;-41
2022/02/12 08:52:04;;;;;;;17.23;11.07;;;6.20;59.00;;;;;;5050735;28;20193;-41
2022/02/12 08:54:29;;;;;;;13.90;11.37;;;6.40;58.60;;;;;;5052026;28;20921;-41
2022/02/12 08:56:56;;;;;;;15.73;10.53;;;6.40;58.20;;;;;;5052035;28;20426;-41
2022/02/12 08:59:22;;;;;;;16.00;9.87;;;6.60;58.30;;;;;;5050984;28;20204;-41
2022/02/12 09:01:47;;;;;;;16.87;9.57;;;6.70;58.40;;;;;;5048131;28;20432;-41
2022/02/12 09:04:13;;;;;;;17.33;10.67;;;6.80;58.70;;;;;;5031448;28;20643;-41
2022/02/12 09:06:40;;;;;;;13.40;10.67;;;6.90;59.80;;;;;;5032195;28;20231;-41
2022/02/12 09:09:10;;;;;;;13.63;9.70;;;6.90;60.90;;;;;;5030861;28;20221;-41
2022/02/12 09:11:41;;;;;;;15.47;10.13;;;6.80;61.20;;;;;;5031856;28;20814;-41
2022/02/12 09:14:08;;;;;;;16.13;9.43;;;6.90;62.90;;;;;;5036200;28;20952;-41
2022/02/12 09:16:34;;;;;;;16.80;9.50;;;7.00;63.90;;;;;;5040714;28;20465;-41
2022/02/12 09:19:00;;;;;;;11.50;8.37;;;7.30;64.60;;;;;;5050680;28;20439;-41
2022/02/12 09:21:26;;;;;;;10.03;8.13;;;7.40;63.80;;;;;;5033218;28;20806;-41
2022/02/12 09:23:52;;;;;;;12.47;7.17;;;7.40;63.70;;;;;;5031018;28;20225;-41
2022/02/12 09:26:21;;;;;;;17.37;8.00;;;7.20;63.60;;;;;;5036159;28;20192;-41
2022/02/12 09:28:47;;;;;;;11.27;6.90;;;7.10;63.30;;;;;;5038557;28;20195;-41
2022/02/12 09:31:14;;;;;;;11.33;6.50;;;7.00;63.20;;;;;;5036941;28;20459;-41
2022/02/12 09:33:39;;;;;;;14.30;7.20;;;7.10;63.50;;;;;;5038339;28;20438;-41
2022/02/12 09:36:05;;;;;;;12.23;5.90;;;7.30;63.30;;;;;;5036745;28;20523;-41
2022/02/12 09:38:31;;;;;;;11.60;6.63;;;7.60;63.40;;;;;;5035410;28;20216;-42
2022/02/12 09:40:57;;;;;;;11.13;5.70;;;7.70;63.80;;;;;;5032278;28;20232;-41
2022/02/12 09:43:25;;;;;;;11.13;5.90;;;7.90;63.60;;;;;;5029250;28;20494;-41
2022/02/12 09:46:13;;;;;;;7.83;6.40;;;8.40;62.30;;;;;;5036267;28;20805;-42
2022/02/12 09:48:40;;;;;;;10.53;5.07;;;8.70;61.20;;;;;;5034611;28;20517;-41
2022/02/12 09:51:06;;;;;;;11.50;5.80;;;8.90;59.50;;;;;;5031363;28;20510;-41
2022/02/12 09:53:32;;;;;;;6.50;4.90;;;8.80;59.70;;;;;;5030503;28;20455;-42
2022/02/12 09:55:58;;;;;;;7.17;4.80;;;9.00;58.30;;;;;;5033939;28;20922;-41
2022/02/12 09:58:24;;;;;;;10.07;4.87;;;9.40;57.50;;;;;;5049972;28;20455;-42
2022/02/12 10:00:50;;;;;;;12.47;5.03;;;9.50;57.10;;;;;;5051127;28;20447;-42
2022/02/12 10:03:16;;;;;;;8.53;4.90;;;9.60;55.10;;;;;;5034952;28;20239;-41
2022/02/12 10:05:53;;;;;;;10.77;5.27;;;9.80;55.70;;;;;;5031197;28;20432;-42
2022/02/12 10:08:21;;;;;;;9.43;4.70;;;10.10;54.90;;;;;;5045576;28;20215;-42
2022/02/12 10:10:48;;;;;;;6.83;5.60;;;10.00;53.30;;;;;;5047609;28;20439;-42
2022/02/12 10:13:16;;;;;;;9.90;4.40;;;10.00;53.90;;;;;;5045832;28;20431;-42
2022/02/12 10:15:54;;;;;;;9.10;5.47;;;10.20;53.80;;;;;;5035912;28;20498;-42
2022/02/12 10:18:21;;;;;;;6.43;3.97;;;10.40;52.50;;;;;;5047284;28;20454;-42
2022/02/12 10:20:48;;;;;;;9.60;5.00;;;10.50;52.40;;;;;;5037968;28;20907;-42
2022/02/12 10:23:21;;;;;;;11.20;4.93;;;10.60;52.50;;;;;;5028813;28;20492;-42
2022/02/12 10:26:03;;;;;;;7.23;4.83;;;10.40;51.90;;;;;;5044247;28;20442;-42
2022/02/12 10:28:42;;;;;;;9.73;4.97;;;10.70;51.30;;;;;;5049768;28;20427;-42
2022/02/12 10:31:09;;;;;;;8.50;4.73;;;10.80;51.20;;;;;;5050517;28;20476;-42
2022/02/12 10:33:41;;;;;;;10.20;4.73;;;10.80;50.50;;;;;;5038518;28;20432;-42
2022/02/12 10:36:12;;;;;;;6.60;4.60;;;11.10;50.50;;;;;;5041730;28;20474;-42
2022/02/12 10:38:54;;;;;;;9.53;5.00;;;11.20;50.00;;;;;;5047947;28;20451;-42
2022/02/12 10:41:21;;;;;;;9.17;4.97;;;11.30;49.70;;;;;;5042633;28;20427;-42
2022/02/12 10:43:53;;;;;;;8.30;4.53;;;11.40;49.10;;;;;;5030454;28;20569;-42
2022/02/12 10:46:19;;;;;;;6.33;4.50;;;11.20;47.80;;;;;;5039178;28;20806;-42
2022/02/12 10:48:48;;;;;;;4.27;3.60;;;11.20;49.00;;;;;;5049417;28;20790;-42
2022/02/12 10:51:17;;;;;;;9.60;4.00;;;11.50;48.50;;;;;;5050504;28;20989;-42
2022/02/12 10:54:06;;;;;;;9.23;4.40;;;11.70;47.30;;;;;;5049902;28;20841;-42
2022/02/12 10:56:52;;;;;;;4.37;3.50;;;11.90;46.50;;;;;;5049588;28;20532;-42
2022/02/12 10:59:23;;;;;;;8.17;4.60;;;11.60;46.30;;;;;;5051056;28;20896;-42
2022/02/12 11:01:50;;;;;;;6.53;4.07;;;11.50;47.50;;;;;;5049962;28;20412;-42
2022/02/12 11:04:16;;;;;;;11.03;4.30;;;11.90;47.40;;;;;;5033265;28;20479;-42
2022/02/12 11:06:47;;;;;;;8.50;4.60;;;11.60;46.30;;;;;;5035610;28;20431;-42
2022/02/12 11:09:14;;;;;;;9.90;4.80;;;11.90;46.70;;;;;;5053164;28;20554;-42
2022/02/12 11:11:40;;;;;;;9.33;4.10;;;12.10;45.40;;;;;;5053843;28;20434;-42
2022/02/12 11:14:07;;;;;;;11.40;4.53;;;12.30;45.50;;;;;;5053078;28;20459;-42
2022/02/12 11:16:34;;;;;;;9.10;3.80;;;12.50;44.70;;;;;;5051327;28;20419;-42
2022/02/12 11:19:01;;;;;;;5.33;4.17;;;12.70;44.40;;;;;;5051043;28;20454;-42
2022/02/12 11:21:27;;;;;;;6.90;4.07;;;12.80;43.50;;;;;;5053671;28;20485;-42
2022/02/12 11:24:04;;;;;;;5.97;4.83;;;13.20;43.40;;;;;;5050281;28;20482;-43
2022/02/12 11:26:49;;;;;;;5.97;3.93;;;13.00;42.60;;;;;;5047321;28;20457;-43
2022/02/12 11:29:45;;;;;;;4.70;3.70;;;13.20;42.70;;;;;;5046371;28;20451;-40
2022/02/12 11:32:14;;;;;;;6.37;4.13;;;13.40;42.00;;;;;;5040051;28;20527;-40
2022/02/12 11:35:08;;;;;;;9.73;4.10;;;13.50;42.10;;;;;;5049065;28;20432;-40
2022/02/12 11:37:38;;;;;;;4.70;3.33;;;13.70;41.50;;;;;;5044127;28;20523;-40
2022/02/12 11:40:12;;;;;;;5.63;3.60;;;13.80;41.00;;;;;;5049039;28;20443;-40
2022/02/12 11:42:46;;;;;;;6.80;3.53;;;13.70;40.20;;;;;;5045185;28;20439;-40
2022/02/12 11:45:29;;;;;;;4.00;3.10;;;13.30;39.70;;;;;;5049833;28;20460;-41
2022/02/12 11:48:17;;;;;;;6.07;3.63;;;12.90;39.70;;;;;;5051986;28;20466;-40
2022/02/12 11:50:48;;;;;;;8.80;3.47;;;12.90;40.30;;;;;;5049447;28;20929;-40
2022/02/12 11:53:38;;;;;;;5.03;3.13;;;12.90;40.40;;;;;;5043353;28;20437;-40
2022/02/12 11:56:09;;;;;;;6.37;3.37;;;13.00;41.00;;;;;;5046522;28;20492;-40
2022/02/12 11:58:41;;;;;;;4.87;3.00;;;12.90;40.60;;;;;;5050566;28;20447;-40
2022/02/12 12:01:22;;;;;;;6.87;2.90;;;13.20;40.50;;;;;;5046909;28;20489;-42
2022/02/12 12:04:11;;;;;;;3.13;2.80;;;13.60;39.20;;;;;;5042793;28;20482;-40
2022/02/12 12:06:38;;;;;;;3.43;2.90;;;13.20;37.30;;;;;;5041577;28;20545;-40
2022/02/12 12:09:03;;;;;;;5.03;2.90;;;12.90;37.60;;;;;;5049485;28;20806;-42
2022/02/12 12:11:29;;;;;;;3.63;2.37;;;12.40;36.70;;;;;;5049451;28;20452;-43
2022/02/12 12:13:58;;;;;;;6.20;3.07;;;12.40;39.20;;;;;;5044204;28;20228;-43
2022/02/12 12:16:32;;;;;;;3.33;2.77;;;12.70;37.90;;;;;;5048432;28;20675;-42
2022/02/12 12:18:59;;;;;;;2.77;2.30;;;12.60;36.60;;;;;;5035383;28;20909;-43
2022/02/12 12:21:25;;;;;;;2.40;2.00;;;12.50;36.30;;;;;;5044030;28;20435;-42
2022/02/12 12:23:57;;;;;;;2.90;2.60;;;12.00;35.00;;;;;;5050729;28;20502;-44
2022/02/12 12:26:45;;;;;;;3.43;2.37;;;11.40;35.20;;;;;;5040337;28;20243;-43
2022/02/12 12:32:01;;;;;;;5.73;2.47;;;10.90;35.50;;;;;;5047621;28;20992;-43
2022/02/12 12:34:27;;;;;;;4.40;2.10;;;10.80;36.10;;;;;;5043919;28;20439;-43
2022/02/12 12:36:56;;;;;;;3.57;2.30;;;11.10;36.70;;;;;;5044574;28;20479;-43
2022/02/12 12:39:34;;;;;;;3.90;2.17;;;11.60;35.90;;;;;;5038372;28;20239;-43
2022/02/12 12:42:00;;;;;;;2.57;2.30;;;11.30;35.50;;;;;;5044998;28;20488;-43
2022/02/12 12:44:27;;;;;;;4.77;2.80;;;11.50;35.70;;;;;;5041810;28;20965;-43
2022/02/12 12:46:55;;;;;;;3.33;2.20;;;11.80;34.50;;;;;;5038731;28;20938;-43
2022/02/12 12:49:39;;;;;;;3.60;2.20;;;12.10;34.10;;;;;;5048275;28;20786;-42
2022/02/12 12:52:06;;;;;;;3.70;2.40;;;12.00;32.60;;;;;;5049570;28;20803;-42
2022/02/12 12:54:34;;;;;;;4.27;2.50;;;11.60;33.00;;;;;;5046896;28;20997;-42